Flight Track Log - Related Links

Times and Time Zones

All times are in EDT time to prevent confusion due to time zone crossing. See the KAP927 flight status page for this flight to view local times or setup timezone preferences in your user account.

Time Position Orientation Groundspeed Altitude Reporting Facility
EDT Latitude Longitude Course Direction KTS MPH feet Rate Location/Type
Fri 05:06:15 PM 44.5664 -75.3453 143° Southeast 147 169 4,000  Level Boston Center
Fri 05:07:14 PM 44.5297 -75.3086 145° Southeast 147 169 4,700 706 Climbing Boston Center
Fri 05:08:14 PM 44.4931 -75.2747 147° Southeast 153 176 5,400 744 Climbing Boston Center
Fri 05:09:15 PM 44.4564 -75.2411 147° Southeast 158 182 6,200 694 Climbing Boston Center
Fri 05:10:15 PM 44.4217 -75.2161 153° Southeast 153 176 6,800 454 Climbing Boston Center
Fri 05:11:14 PM 44.3831 -75.1794 146° Southeast 153 176 7,100 150 Climbing Boston Center
Fri 05:12:15 PM 44.3381 -75.1425 150° Southeast 171 197 7,100  Level Boston Center
Fri 05:13:14 PM 44.2908 -75.1083 153° Southeast 181 208 7,100  Level Boston Center
Fri 05:14:14 PM 44.2481 -75.0658 145° Southeast 187 215 7,100  Level Boston Center
Fri 05:15:14 PM 44.2031 -75.0264 148° Southeast 187 215 7,100  Level Boston Center
Fri 05:16:14 PM 44.1703 -74.9989 149° Southeast 182 209 7,100  Level Boston Center
Fri 05:17:15 PM 44.1233 -74.9592 149° Southeast 177 204 7,100  Level Boston Center
Fri 05:18:15 PM 44.0806 -74.9169 145° Southeast 182 209 7,100  Level Boston Center
Fri 05:19:14 PM 44.0353 -74.8803 150° Southeast 182 209 7,100  Level Boston Center
Fri 05:20:15 PM 43.9925 -74.8439 149° Southeast 182 209 7,100  Level Boston Center
Fri 05:21:15 PM 43.9494 -74.8106 151° Southeast 182 209 7,100 -50 Level Boston Center
Fri 05:22:15 PM 43.9042 -74.7714 148° Southeast 182 209 7,000 -50 Descending Boston Center
Fri 05:23:15 PM 43.8611 -74.7350 149° Southeast 182 209 7,000  Level Boston Center
Fri 05:24:27 PM 43.8100 -74.6900 148° Southeast 182 209 7,000  Level Boston Center
Fri 05:25:27 PM 43.7692 -74.6539 147° Southeast 177 204 7,000  Level Boston Center
Fri 05:26:26 PM 43.7258 -74.6208 151° Southeast 177 204 7,000  Level Boston Center
Fri 05:27:26 PM 43.6828 -74.5847 149° Southeast 177 204 7,000  Level Boston Center
Fri 05:28:27 PM 43.6419 -74.5489 148° Southeast 177 204 7,000  Level Boston Center
Fri 05:29:26 PM 43.6008 -74.5103 146° Southeast 177 204 7,000  Level Boston Center
Fri 05:30:27 PM 43.5597 -74.4772 150° Southeast 177 204 7,000  Level Boston Center
Fri 05:31:27 PM 43.5186 -74.4444 150° Southeast 177 204 7,000  Level Boston Center
Fri 05:32:27 PM 43.4878 -74.4175 148° Southeast 177 204 7,000  Level Boston Center
Fri 05:33:04 PM 43.4508 -74.3878 150° Southeast 170 196 7,000  Level Boston Center
Fri 05:33:22 PM 43.4406 -74.3758 140° Southeast 168 193 7,000  Level Boston Center
Fri 05:34:23 PM 43.4017 -74.3433 149° Southeast 161 185 7,000  Level Boston Center
Fri 05:35:26 PM 43.3583 -74.3161 155° Southeast 172 198 7,000  Level Boston Center
Fri 05:36:24 PM 43.3169 -74.2864 152° Southeast 168 193 7,000  Level Boston Center
Fri 05:37:25 PM 43.2781 -74.2453 142° Southeast 167 192 7,000  Level Boston Center
Fri 05:38:25 PM 43.2389 -74.2128 149° Southeast 166 191 7,000 -246 Level Boston Center
Fri 05:39:27 PM 43.2000 -74.1775 147° Southeast 172 198 6,500 -492 Descending Boston Center
Fri 05:40:27 PM 43.1506 -74.1361 149° Southeast 183 211 6,000 -450 Descending Boston Center
Fri 05:41:27 PM 43.1072 -74.1039 152° Southeast 189 217 5,600 -600 Descending Boston Center
Fri 05:42:27 PM 43.0619 -74.0628 146° Southeast 183 211 4,800 -650 Descending Boston Center
Fri 05:43:27 PM 43.0228 -74.0306 149° Southeast 183 211 4,300 -400 Descending Boston Center
Fri 05:44:27 PM 42.9733 -73.9894 149° Southeast 183 211 4,000 -151 Descending Boston Center
Fri 05:45:26 PM 42.9364 -73.9572 147° Southeast 178 205 4,000  Level Boston Center
Fri 05:46:27 PM 42.8886 -73.9333 160° South 173 199 4,000  Level Boston Center
Fri 05:47:26 PM 42.8450 -73.9353 182° South 167 192 4,000  Level Boston Center
Fri 05:48:32 PM 42.7886 -73.9311 177° South 175 201 4,000  Level Boston Center
Fri 05:49:32 PM 42.7386 -73.9269 176° South 183 211 4,000 -397 Level Boston Center
Fri 05:50:33 PM 42.6828 -73.9117 169° South 209 241 3,200 -689 Descending Boston Center
Fri 05:51:34 PM 42.6331 -73.8767 153° Southeast 204 235 2,600 -567 Descending Boston Center
Fri 05:52:40 PM 42.6150 -73.8111 110° East 173 199 2,000 -283 Descending Boston Center
Fri 05:53:41 PM 42.6506 -73.8036 North 128 147 2,000 -207 Level Boston Center
Fri 05:54:36 PM 42.6797 -73.8042 359° North 118 136 1,600 -574 Descending Boston Center
Fri 05:55:36 PM 42.7069 -73.8047 359° North 84 97 900 -700 Descending Boston Center

Login

Don't have an account? Register now (free) for customized features, flight alerts, and more!